Terminal Aerodrome Forecast
Issued by NWS Twin Cities, MN

Home | Current Version | Previous Version | Text Only | Print | Product List | Glossary Off
Versions: 1 2 3 4 5 6 7 8 9 10 11 12 13 14 15 16 17 18

000
FTUS43 KMPX 281519 AAB
TAFSTC
TAF AMD
KSTC 281519Z 2815/2912 21013KT P6SM SCT010
     FM281700 23015G22KT P6SM VCSH SCT020 OVC035
     FM282300 25016G23KT P6SM BKN040
     FM290200 25014G19KT P6SM SCT250=

USA.gov is the U.S. government's official web portal to all federal, state and local government web resources and services.